sensor_id;sensor_type;location;lat;lon;timestamp;pressure;altitude;pressure_sealevel;temperature;humidity
68193;BME280;55012;47.562;18.414;2023-05-31T00:01:34;99601.81;;;19.59;100.00
68193;BME280;55012;47.562;18.414;2023-05-31T00:04:00;99602.22;;;19.57;100.00
68193;BME280;55012;47.562;18.414;2023-05-31T00:06:26;99602.19;;;19.68;100.00
68193;BME280;55012;47.562;18.414;2023-05-31T00:08:51;99607.69;;;19.72;100.00
68193;BME280;55012;47.562;18.414;2023-05-31T00:11:17;99608.09;;;19.70;100.00
68193;BME280;55012;47.562;18.414;2023-05-31T00:13:42;99602.59;;;19.67;100.00
68193;BME280;55012;47.562;18.414;2023-05-31T00:16:09;99598.69;;;19.57;100.00
68193;BME280;55012;47.562;18.414;2023-05-31T00:18:35;99600.66;;;19.49;100.00
68193;BME280;55012;47.562;18.414;2023-05-31T00:21:00;99599.09;;;19.48;100.00
68193;BME280;55012;47.562;18.414;2023-05-31T00:23:26;99600.25;;;19.51;100.00
68193;BME280;55012;47.562;18.414;2023-05-31T00:25:51;99603.00;;;19.58;100.00
68193;BME280;55012;47.562;18.414;2023-05-31T00:28:17;99604.56;;;19.66;100.00
68193;BME280;55012;47.562;18.414;2023-05-31T00:30:42;99602.63;;;19.63;100.00
68193;BME280;55012;47.562;18.414;2023-05-31T00:33:08;99606.50;;;19.66;100.00
68193;BME280;55012;47.562;18.414;2023-05-31T00:35:33;99604.16;;;19.71;100.00
68193;BME280;55012;47.562;18.414;2023-05-31T00:38:04;99608.06;;;19.67;100.00
68193;BME280;55012;47.562;18.414;2023-05-31T00:40:30;99607.31;;;19.70;100.00
68193;BME280;55012;47.562;18.414;2023-05-31T00:42:55;99609.28;;;19.62;100.00
68193;BME280;55012;47.562;18.414;2023-05-31T00:45:20;99609.66;;;19.50;100.00
68193;BME280;55012;47.562;18.414;2023-05-31T00:47:46;99604.97;;;19.47;100.00
68193;BME280;55012;47.562;18.414;2023-05-31T00:50:12;99603.41;;;19.46;100.00
68193;BME280;55012;47.562;18.414;2023-05-31T00:52:37;99611.22;;;19.54;100.00
68193;BME280;55012;47.562;18.414;2023-05-31T00:55:03;99603.78;;;19.62;100.00
68193;BME280;55012;47.562;18.414;2023-05-31T00:57:29;99605.34;;;19.67;100.00
68193;BME280;55012;47.562;18.414;2023-05-31T00:59:55;99610.44;;;19.72;100.00
68193;BME280;55012;47.562;18.414;2023-05-31T01:02:20;99607.69;;;19.72;100.00
68193;BME280;55012;47.562;18.414;2023-05-31T01:04:46;99610.03;;;19.66;100.00
68193;BME280;55012;47.562;18.414;2023-05-31T01:07:12;99608.44;;;19.69;100.00
68193;BME280;55012;47.562;18.414;2023-05-31T01:09:38;99607.31;;;19.62;100.00
68193;BME280;55012;47.562;18.414;2023-05-31T01:12:19;99611.22;;;19.65;100.00
68193;BME280;55012;47.562;18.414;2023-05-31T01:20:31;99607.69;;;19.72;100.00
68193;BME280;55012;47.562;18.414;2023-05-31T01:28:42;99605.75;;;19.61;100.00
68193;BME280;55012;47.562;18.414;2023-05-31T01:31:14;99604.19;;;19.46;100.00
68193;BME280;55012;47.562;18.414;2023-05-31T01:33:41;99601.44;;;19.50;100.00
68193;BME280;55012;47.562;18.414;2023-05-31T01:36:08;99594.78;;;19.44;100.00
68193;BME280;55012;47.562;18.414;2023-05-31T01:38:33;99595.94;;;19.53;100.00
68193;BME280;55012;47.562;18.414;2023-05-31T01:40:59;99600.66;;;19.63;100.00
68193;BME280;55012;47.562;18.414;2023-05-31T01:43:28;99590.44;;;19.60;100.00
68193;BME280;55012;47.562;18.414;2023-05-31T01:45:54;99593.16;;;19.68;100.00
68193;BME280;55012;47.562;18.414;2023-05-31T01:48:21;99596.28;;;19.80;100.00
68193;BME280;55012;47.562;18.414;2023-05-31T01:50:47;99597.75;;;19.99;100.00
68193;BME280;55012;47.562;18.414;2023-05-31T01:53:12;99595.78;;;20.00;100.00
68193;BME280;55012;47.562;18.414;2023-05-31T01:55:38;99587.94;;;20.05;100.00
68193;BME280;55012;47.562;18.414;2023-05-31T01:58:04;99592.19;;;20.13;100.00
68193;BME280;55012;47.562;18.414;2023-05-31T02:00:32;99589.47;;;20.10;100.00
68193;BME280;55012;47.562;18.414;2023-05-31T02:02:57;99590.31;;;20.00;100.00
68193;BME280;55012;47.562;18.414;2023-05-31T02:05:23;99593.91;;;19.86;100.00
68193;BME280;55012;47.562;18.414;2023-05-31T02:07:49;99599.03;;;19.73;100.00
68193;BME280;55012;47.562;18.414;2023-05-31T02:10:15;99591.22;;;19.68;100.00
68193;BME280;55012;47.562;18.414;2023-05-31T02:12:41;99593.59;;;19.62;100.00
68193;BME280;55012;47.562;18.414;2023-05-31T02:15:07;99588.09;;;19.59;100.00
68193;BME280;55012;47.562;18.414;2023-05-31T02:17:37;99592.78;;;19.51;100.00
68193;BME280;55012;47.562;18.414;2023-05-31T02:20:09;99595.56;;;19.48;100.00
68193;BME280;55012;47.562;18.414;2023-05-31T02:22:35;99594.00;;;19.43;100.00
68193;BME280;55012;47.562;18.414;2023-05-31T02:25:00;99596.38;;;19.45;100.00
68193;BME280;55012;47.562;18.414;2023-05-31T02:27:28;99600.25;;;19.51;100.00
68193;BME280;55012;47.562;18.414;2023-05-31T02:29:54;99606.16;;;19.56;100.00
68193;BME280;55012;47.562;18.414;2023-05-31T02:32:19;99600.63;;;19.67;100.00
68193;BME280;55012;47.562;18.414;2023-05-31T02:34:45;99594.38;;;19.63;100.00
68193;BME280;55012;47.562;18.414;2023-05-31T02:37:10;99600.66;;;19.49;100.00
68193;BME280;55012;47.562;18.414;2023-05-31T02:39:36;99592.84;;;19.37;100.00
68193;BME280;55012;47.562;18.414;2023-05-31T02:42:01;99599.91;;;19.38;100.00
68193;BME280;55012;47.562;18.414;2023-05-31T02:44:27;99606.94;;;19.39;100.00
68193;BME280;55012;47.562;18.414;2023-05-31T02:46:52;99601.03;;;19.51;100.00
68193;BME280;55012;47.562;18.414;2023-05-31T02:49:18;99609.66;;;19.60;100.00
68193;BME280;55012;47.562;18.414;2023-05-31T02:51:44;99606.13;;;19.60;100.00
68193;BME280;55012;47.562;18.414;2023-05-31T02:54:10;99604.56;;;19.62;100.00
68193;BME280;55012;47.562;18.414;2023-05-31T02:56:35;99607.31;;;19.62;100.00
68193;BME280;55012;47.562;18.414;2023-05-31T02:59:01;99611.19;;;19.69;100.00
68193;BME280;55012;47.562;18.414;2023-05-31T03:01:26;99615.56;;;19.62;100.00
68193;BME280;55012;47.562;18.414;2023-05-31T03:03:51;99612.78;;;19.66;100.00
68193;BME280;55012;47.562;18.414;2023-05-31T03:06:17;99614.72;;;19.73;100.00
68193;BME280;55012;47.562;18.414;2023-05-31T03:08:45;99612.38;;;19.68;100.00
68193;BME280;55012;47.562;18.414;2023-05-31T03:11:10;99612.81;;;19.62;100.00
68193;BME280;55012;47.562;18.414;2023-05-31T03:13:36;99617.09;;;19.67;100.00
68193;BME280;55012;47.562;18.414;2023-05-31T03:16:01;99619.81;;;19.74;100.00
68193;BME280;55012;47.562;18.414;2023-05-31T03:18:27;99625.31;;;19.74;100.00
68193;BME280;55012;47.562;18.414;2023-05-31T03:20:52;99632.41;;;19.64;100.00
68193;BME280;55012;47.562;18.414;2023-05-31T03:23:18;99630.03;;;19.70;100.00
68193;BME280;55012;47.562;18.414;2023-05-31T03:25:43;99628.44;;;19.76;100.00
68193;BME280;55012;47.562;18.414;2023-05-31T03:28:09;99630.78;;;19.81;100.00
68193;BME280;55012;47.562;18.414;2023-05-31T03:30:35;99631.97;;;19.73;100.00
68193;BME280;55012;47.562;18.414;2023-05-31T03:33:00;99633.94;;;19.69;100.00
68193;BME280;55012;47.562;18.414;2023-05-31T03:35:26;99634.34;;;19.78;100.00
68193;BME280;55012;47.562;18.414;2023-05-31T03:37:52;99637.44;;;19.77;100.00
68193;BME280;55012;47.562;18.414;2023-05-31T03:40:18;99631.59;;;19.78;100.00
68193;BME280;55012;47.562;18.414;2023-05-31T03:42:43;99638.63;;;19.83;100.00
68193;BME280;55012;47.562;18.414;2023-05-31T03:45:09;99633.94;;;19.76;100.00
68193;BME280;55012;47.562;18.414;2023-05-31T03:47:34;99638.66;;;19.72;100.00
68193;BME280;55012;47.562;18.414;2023-05-31T03:50:01;99630.06;;;19.63;100.00
68193;BME280;55012;47.562;18.414;2023-05-31T03:52:27;99635.94;;;19.47;100.00
68193;BME280;55012;47.562;18.414;2023-05-31T03:54:52;99641.47;;;19.29;100.00
68193;BME280;55012;47.562;18.414;2023-05-31T03:57:17;99641.84;;;19.21;100.00
68193;BME280;55012;47.562;18.414;2023-05-31T03:59:43;99645.00;;;19.12;100.00
68193;BME280;55012;47.562;18.414;2023-05-31T04:02:08;99640.69;;;19.07;100.00
68193;BME280;55012;47.562;18.414;2023-05-31T04:04:34;99641.06;;;18.92;100.00
68193;BME280;55012;47.562;18.414;2023-05-31T04:06:59;99636.34;;;18.82;100.00
68193;BME280;55012;47.562;18.414;2023-05-31T04:09:25;99639.81;;;18.61;100.00
68193;BME280;55012;47.562;18.414;2023-05-31T04:11:50;99642.94;;;18.56;100.00
68193;BME280;55012;47.562;18.414;2023-05-31T04:14:16;99649.97;;;18.46;100.00
68193;BME280;55012;47.562;18.414;2023-05-31T04:16:41;99644.88;;;18.48;100.00
68193;BME280;55012;47.562;18.414;2023-05-31T04:19:08;99650.78;;;18.53;100.00
68193;BME280;55012;47.562;18.414;2023-05-31T04:21:33;99660.94;;;18.57;100.00
68193;BME280;55012;47.562;18.414;2023-05-31T04:23:59;99660.16;;;18.56;100.00
68193;BME280;55012;47.562;18.414;2023-05-31T04:26:25;99662.09;;;18.41;100.00
68193;BME280;55012;47.562;18.414;2023-05-31T04:28:51;99669.47;;;18.23;100.00
68193;BME280;55012;47.562;18.414;2023-05-31T04:31:20;99665.50;;;18.13;100.00
68193;BME280;55012;47.562;18.414;2023-05-31T04:33:50;99669.31;;;17.94;100.00
68193;BME280;55012;47.562;18.414;2023-05-31T04:36:16;99668.88;;;17.82;100.00
68193;BME280;55012;47.562;18.414;2023-05-31T04:38:41;99669.94;;;17.66;100.00
68193;BME280;55012;47.562;18.414;2023-05-31T04:41:07;99670.31;;;17.68;100.00
68193;BME280;55012;47.562;18.414;2023-05-31T04:43:32;99669.97;;;17.70;100.00
68193;BME280;55012;47.562;18.414;2023-05-31T04:45:58;99672.34;;;17.72;100.00
68193;BME280;55012;47.562;18.414;2023-05-31T04:48:27;99669.63;;;17.75;100.00
68193;BME280;55012;47.562;18.414;2023-05-31T04:50:52;99668.50;;;17.87;100.00
68193;BME280;55012;47.562;18.414;2023-05-31T04:53:20;99671.31;;;18.01;100.00
68193;BME280;55012;47.562;18.414;2023-05-31T04:55:46;99678.78;;;18.11;100.00
68193;BME280;55012;47.562;18.414;2023-05-31T04:58:11;99678.47;;;18.27;100.00
68193;BME280;55012;47.562;18.414;2023-05-31T05:00:36;99689.84;;;18.36;100.00
68193;BME280;55012;47.562;18.414;2023-05-31T05:03:02;99687.13;;;18.43;100.00
68193;BME280;55012;47.562;18.414;2023-05-31T05:05:28;99688.78;;;18.62;100.00
68193;BME280;55012;47.562;18.414;2023-05-31T05:07:53;99686.88;;;18.84;100.00
68193;BME280;55012;47.562;18.414;2023-05-31T05:10:19;99693.56;;;18.97;100.00
68193;BME280;55012;47.562;18.414;2023-05-31T05:12:45;99695.13;;;19.13;100.00
68193;BME280;55012;47.562;18.414;2023-05-31T05:15:10;99702.16;;;19.28;100.00
68193;BME280;55012;47.562;18.414;2023-05-31T05:17:36;99698.25;;;19.32;100.00
68193;BME280;55012;47.562;18.414;2023-05-31T05:20:03;99706.88;;;19.34;100.00
68193;BME280;55012;47.562;18.414;2023-05-31T05:22:33;99708.84;;;19.30;100.00
68193;BME280;55012;47.562;18.414;2023-05-31T05:24:58;99705.72;;;19.25;100.00
68193;BME280;55012;47.562;18.414;2023-05-31T05:27:24;99701.78;;;19.26;100.00
68193;BME280;55012;47.562;18.414;2023-05-31T05:29:49;99708.06;;;19.26;100.00
68193;BME280;55012;47.562;18.414;2023-05-31T05:32:15;99710.78;;;19.44;100.00
68193;BME280;55012;47.562;18.414;2023-05-31T05:34:40;99712.38;;;19.67;100.00
68193;BME280;55012;47.562;18.414;2023-05-31T05:37:06;99715.09;;;19.77;100.00
68193;BME280;55012;47.562;18.414;2023-05-31T05:39:32;99719.38;;;19.92;100.00
68193;BME280;55012;47.562;18.414;2023-05-31T05:41:57;99722.91;;;20.04;100.00
68193;BME280;55012;47.562;18.414;2023-05-31T05:44:23;99726.03;;;19.99;100.00
68193;BME280;55012;47.562;18.414;2023-05-31T05:46:48;99728.41;;;20.00;100.00
68193;BME280;55012;47.562;18.414;2023-05-31T05:49:13;99726.06;;;19.91;100.00
68193;BME280;55012;47.562;18.414;2023-05-31T05:51:39;99728.47;;;19.72;100.00
68193;BME280;55012;47.562;18.414;2023-05-31T05:54:04;99728.03;;;19.52;100.00
68193;BME280;55012;47.562;18.414;2023-05-31T05:56:31;99721.78;;;19.37;100.00
68193;BME280;55012;47.562;18.414;2023-05-31T05:58:56;99723.72;;;19.26;100.00
68193;BME280;55012;47.562;18.414;2023-05-31T06:01:22;99723.72;;;19.15;100.00
68193;BME280;55012;47.562;18.414;2023-05-31T06:03:49;99724.13;;;19.06;100.00
68193;BME280;55012;47.562;18.414;2023-05-31T06:06:15;99721.34;;;19.03;100.00
68193;BME280;55012;47.562;18.414;2023-05-31T06:08:45;99722.53;;;19.02;100.00
68193;BME280;55012;47.562;18.414;2023-05-31T06:11:11;99724.91;;;19.07;100.00
68193;BME280;55012;47.562;18.414;2023-05-31T06:13:37;99728.00;;;19.02;100.00
68193;BME280;55012;47.562;18.414;2023-05-31T06:16:05;99723.72;;;18.97;100.00
68193;BME280;55012;47.562;18.414;2023-05-31T06:18:31;99736.25;;;18.98;100.00
68193;BME280;55012;47.562;18.414;2023-05-31T06:20:57;99731.94;;;19.01;100.00
68193;BME280;55012;47.562;18.414;2023-05-31T06:23:22;99731.19;;;19.04;100.00
68193;BME280;55012;47.562;18.414;2023-05-31T06:25:48;99731.56;;;19.06;100.00
68193;BME280;55012;47.562;18.414;2023-05-31T06:28:13;99728.03;;;19.09;100.00
68193;BME280;55012;47.562;18.414;2023-05-31T06:30:39;99735.47;;;19.01;100.00
68193;BME280;55012;47.562;18.414;2023-05-31T06:33:04;99735.06;;;18.96;100.00
68193;BME280;55012;47.562;18.414;2023-05-31T06:35:30;99731.53;;;18.92;100.00
68193;BME280;55012;47.562;18.414;2023-05-31T06:37:55;99725.28;;;18.88;100.00
68193;BME280;55012;47.562;18.414;2023-05-31T06:40:21;99732.69;;;18.84;100.00
68193;BME280;55012;47.562;18.414;2023-05-31T06:42:47;99730.34;;;18.86;100.00
68193;BME280;55012;47.562;18.414;2023-05-31T06:45:12;99727.19;;;18.84;100.00
68193;BME280;55012;47.562;18.414;2023-05-31T06:47:38;99722.91;;;18.83;100.00
68193;BME280;55012;47.562;18.414;2023-05-31T06:50:03;99728.38;;;18.83;100.00
68193;BME280;55012;47.562;18.414;2023-05-31T06:52:29;99728.75;;;18.74;100.00
68193;BME280;55012;47.562;18.414;2023-05-31T06:54:55;99734.22;;;18.74;100.00
68193;BME280;55012;47.562;18.414;2023-05-31T06:57:20;99735.41;;;18.73;100.00
68193;BME280;55012;47.562;18.414;2023-05-31T06:59:46;99730.72;;;18.80;100.00
68193;BME280;55012;47.562;18.414;2023-05-31T07:02:11;99733.53;;;19.05;100.00
68193;BME280;55012;47.562;18.414;2023-05-31T07:04:36;99734.31;;;19.24;100.00
68193;BME280;55012;47.562;18.414;2023-05-31T07:07:02;99733.13;;;19.35;100.00
68193;BME280;55012;47.562;18.414;2023-05-31T07:09:28;99735.13;;;19.46;100.00
68193;BME280;55012;47.562;18.414;2023-05-31T07:11:54;99741.00;;;19.55;100.00
68193;BME280;55012;47.562;18.414;2023-05-31T07:14:20;99748.47;;;19.72;100.00
68193;BME280;55012;47.562;18.414;2023-05-31T07:16:47;99746.47;;;19.83;100.00
68193;BME280;55012;47.562;18.414;2023-05-31T07:19:12;99755.50;;;19.95;100.00
68193;BME280;55012;47.562;18.414;2023-05-31T07:21:38;99758.59;;;20.04;100.00
68193;BME280;55012;47.562;18.414;2023-05-31T07:24:03;99762.13;;;20.08;100.00
68193;BME280;55012;47.562;18.414;2023-05-31T07:26:29;99767.63;;;20.04;100.00
68193;BME280;55012;47.562;18.414;2023-05-31T07:28:54;99766.06;;;20.00;100.00
68193;BME280;55012;47.562;18.414;2023-05-31T07:31:20;99764.78;;;20.33;100.00
68193;BME280;55012;47.562;18.414;2023-05-31T07:33:46;99763.13;;;20.64;100.00
68193;BME280;55012;47.562;18.414;2023-05-31T07:36:12;99764.19;;;20.88;100.00
68193;BME280;55012;47.562;18.414;2023-05-31T07:38:37;99769.22;;;21.03;100.00
68193;BME280;55012;47.562;18.414;2023-05-31T07:41:03;99769.88;;;21.18;100.00
68193;BME280;55012;47.562;18.414;2023-05-31T07:43:28;99777.31;;;21.32;100.00
68193;BME280;55012;47.562;18.414;2023-05-31T07:45:57;99764.69;;;21.38;100.00
68193;BME280;55012;47.562;18.414;2023-05-31T07:48:23;99777.63;;;21.45;100.00
68193;BME280;55012;47.562;18.414;2023-05-31T07:50:49;99775.66;;;21.45;100.00
68193;BME280;55012;47.562;18.414;2023-05-31T07:53:24;99774.41;;;21.50;100.00
68193;BME280;55012;47.562;18.414;2023-05-31T07:55:49;99782.66;;;21.50;100.00
68193;BME280;55012;47.562;18.414;2023-05-31T07:58:15;99770.91;;;21.46;100.00
68193;BME280;55012;47.562;18.414;2023-05-31T08:00:40;99781.47;;;21.54;100.00
68193;BME280;55012;47.562;18.414;2023-05-31T08:03:06;99782.22;;;21.58;100.00
68193;BME280;55012;47.562;18.414;2023-05-31T08:05:32;99782.59;;;21.61;100.00
68193;BME280;55012;47.562;18.414;2023-05-31T08:07:58;99777.16;;;21.53;100.00
68193;BME280;55012;47.562;18.414;2023-05-31T08:10:24;99781.09;;;21.52;100.00
68193;BME280;55012;47.562;18.414;2023-05-31T08:12:50;99773.63;;;21.53;100.00
68193;BME280;55012;47.562;18.414;2023-05-31T08:15:16;99779.84;;;21.61;100.00
68193;BME280;55012;47.562;18.414;2023-05-31T08:17:41;99777.84;;;21.65;100.00
68193;BME280;55012;47.562;18.414;2023-05-31T08:20:10;99775.91;;;21.58;100.00
68193;BME280;55012;47.562;18.414;2023-05-31T08:22:35;99771.97;;;21.59;100.00
68193;BME280;55012;47.562;18.414;2023-05-31T08:25:01;99766.09;;;21.61;100.00
68193;BME280;55012;47.562;18.414;2023-05-31T08:27:27;99772.44;;;21.54;100.00
68193;BME280;55012;47.562;18.414;2023-05-31T08:29:53;99771.59;;;21.57;100.00
68193;BME280;55012;47.562;18.414;2023-05-31T08:32:18;99772.34;;;21.65;100.00
68193;BME280;55012;47.562;18.414;2023-05-31T08:34:45;99771.50;;;21.71;100.00
68193;BME280;55012;47.562;18.414;2023-05-31T08:37:11;99769.03;;;21.80;100.00
68193;BME280;55012;47.562;18.414;2023-05-31T08:39:37;99771.81;;;21.80;100.00
68193;BME280;55012;47.562;18.414;2023-05-31T08:42:04;99769.81;;;21.81;100.00
68193;BME280;55012;47.562;18.414;2023-05-31T08:44:31;99773.00;;;21.76;100.00
68193;BME280;55012;47.562;18.414;2023-05-31T08:47:23;99770.00;;;21.59;100.00
68193;BME280;55012;47.562;18.414;2023-05-31T08:49:54;99768.91;;;21.50;100.00
68193;BME280;55012;47.562;18.414;2023-05-31T08:52:21;99769.31;;;21.48;100.00
68193;BME280;55012;47.562;18.414;2023-05-31T08:54:48;99775.91;;;21.58;100.00
68193;BME280;55012;47.562;18.414;2023-05-31T08:57:14;99776.63;;;21.69;100.00
68193;BME280;55012;47.562;18.414;2023-05-31T08:59:41;99775.75;;;21.79;100.00
68193;BME280;55012;47.562;18.414;2023-05-31T09:02:08;99775.28;;;21.88;100.00
68193;BME280;55012;47.562;18.414;2023-05-31T09:04:34;99772.47;;;21.92;100.00
68193;BME280;55012;47.562;18.414;2023-05-31T09:07:00;99773.97;;;22.00;100.00
68193;BME280;55012;47.562;18.414;2023-05-31T09:09:26;99775.16;;;22.02;100.00
68193;BME280;55012;47.562;18.414;2023-05-31T09:11:52;99771.56;;;22.05;100.00
68193;BME280;55012;47.562;18.414;2023-05-31T09:14:17;99770.38;;;22.06;100.00
68193;BME280;55012;47.562;18.414;2023-05-31T09:16:43;99769.19;;;22.11;100.00
68193;BME280;55012;47.562;18.414;2023-05-31T09:19:09;99765.53;;;22.18;100.00
68193;BME280;55012;47.562;18.414;2023-05-31T09:21:39;99765.94;;;22.20;100.00
68193;BME280;55012;47.562;18.414;2023-05-31T09:24:05;99773.06;;;22.13;100.00
68193;BME280;55012;47.562;18.414;2023-05-31T09:26:31;99762.56;;;22.01;100.00
68193;BME280;55012;47.562;18.414;2023-05-31T09:28:58;99763.72;;;22.00;100.00
68193;BME280;55012;47.562;18.414;2023-05-31T09:31:24;99752.28;;;22.05;100.00
68193;BME280;55012;47.562;18.414;2023-05-31T09:33:50;99765.97;;;22.16;100.00
68193;BME280;55012;47.562;18.414;2023-05-31T09:36:31;99757.25;;;22.21;100.00
68193;BME280;55012;47.562;18.414;2023-05-31T09:39:02;99761.50;;;22.29;100.00
68193;BME280;55012;47.562;18.414;2023-05-31T09:41:33;99762.63;;;22.32;100.00
68193;BME280;55012;47.562;18.414;2023-05-31T09:43:59;99758.66;;;22.36;100.00
68193;BME280;55012;47.562;18.414;2023-05-31T09:46:26;99757.09;;;22.35;100.00
68193;BME280;55012;47.562;18.414;2023-05-31T09:49:02;99755.53;;;22.34;100.00
68193;BME280;55012;47.562;18.414;2023-05-31T09:51:29;99758.19;;;22.41;100.00
68193;BME280;55012;47.562;18.414;2023-05-31T09:53:58;99757.75;;;22.47;100.00
68193;BME280;55012;47.562;18.414;2023-05-31T09:56:27;99758.53;;;22.47;100.00
68193;BME280;55012;47.562;18.414;2023-05-31T09:58:55;99750.66;;;22.46;100.00
68193;BME280;55012;47.562;18.414;2023-05-31T10:01:21;99756.13;;;22.49;100.00
68193;BME280;55012;47.562;18.414;2023-05-31T10:03:50;99757.59;;;22.57;100.00
68193;BME280;55012;47.562;18.414;2023-05-31T10:06:17;99749.25;;;22.64;100.00
68193;BME280;55012;47.562;18.414;2023-05-31T10:08:44;99741.44;;;22.59;100.00
68193;BME280;55012;47.562;18.414;2023-05-31T10:11:11;99752.91;;;22.54;100.00
68193;BME280;55012;47.562;18.414;2023-05-31T10:13:41;99744.00;;;22.43;100.00
68193;BME280;55012;47.562;18.414;2023-05-31T10:16:11;99743.53;;;22.48;100.00
68193;BME280;55012;47.562;18.414;2023-05-31T10:18:38;99743.81;;;22.57;100.00
68193;BME280;55012;47.562;18.414;2023-05-31T10:21:10;99747.25;;;22.65;100.00
68193;BME280;55012;47.562;18.414;2023-05-31T10:23:45;99752.66;;;22.76;100.00
68193;BME280;55012;47.562;18.414;2023-05-31T10:26:15;99739.94;;;22.82;100.00
68193;BME280;55012;47.562;18.414;2023-05-31T10:29:46;99742.59;;;22.92;100.00
68193;BME280;55012;47.562;18.414;2023-05-31T10:31:50;99747.69;;;22.94;100.00
68193;BME280;55012;47.562;18.414;2023-05-31T10:34:23;99743.38;;;22.93;100.00
68193;BME280;55012;47.562;18.414;2023-05-31T10:36:50;99739.34;;;22.97;100.00
68193;BME280;55012;47.562;18.414;2023-05-31T10:39:39;99737.44;;;22.94;100.00
68193;BME280;55012;47.562;18.414;2023-05-31T10:48:10;99750.75;;;22.99;100.00
68193;BME280;55012;47.562;18.414;2023-05-31T10:50:57;99744.88;;;22.97;100.00
68193;BME280;55012;47.562;18.414;2023-05-31T10:53:30;99743.56;;;23.06;100.00
68193;BME280;55012;47.562;18.414;2023-05-31T10:56:12;99747.78;;;23.14;100.00
68193;BME280;55012;47.562;18.414;2023-05-31T10:58:48;99745.78;;;23.41;100.00
68193;BME280;55012;47.562;18.414;2023-05-31T11:01:16;99734.06;;;23.61;100.00
68193;BME280;55012;47.562;18.414;2023-05-31T11:03:49;99733.44;;;23.73;100.00
68193;BME280;55012;47.562;18.414;2023-05-31T11:06:26;99730.78;;;23.66;100.00
68193;BME280;55012;47.562;18.414;2023-05-31T11:11:27;99731.25;;;23.37;100.00
68193;BME280;55012;47.562;18.414;2023-05-31T11:16:33;99718.72;;;23.79;100.00
68193;BME280;55012;47.562;18.414;2023-05-31T11:19:33;99719.31;;;24.10;100.00
68193;BME280;55012;47.562;18.414;2023-05-31T11:22:21;99716.59;;;24.07;100.00
68193;BME280;55012;47.562;18.414;2023-05-31T11:24:48;99714.13;;;23.93;100.00
68193;BME280;55012;47.562;18.414;2023-05-31T11:27:16;99711.84;;;23.88;100.00
68193;BME280;55012;47.562;18.414;2023-05-31T11:32:13;99709.34;;;24.17;100.00
68193;BME280;55012;47.562;18.414;2023-05-31T11:34:52;99706.34;;;24.47;100.00
68193;BME280;55012;47.562;18.414;2023-05-31T11:37:20;99704.72;;;24.50;100.00
68193;BME280;55012;47.562;18.414;2023-05-31T11:39:49;99705.13;;;24.48;100.00
68193;BME280;55012;47.562;18.414;2023-05-31T11:42:15;99702.16;;;24.19;100.00
68193;BME280;55012;47.562;18.414;2023-05-31T11:44:45;99690.59;;;24.24;100.00
68193;BME280;55012;47.562;18.414;2023-05-31T11:47:17;99695.31;;;24.63;100.00
68193;BME280;55012;47.562;18.414;2023-05-31T11:49:43;99692.53;;;24.83;100.00
68193;BME280;55012;47.562;18.414;2023-05-31T11:52:15;99697.06;;;24.74;100.00
68193;BME280;55012;47.562;18.414;2023-05-31T11:54:42;99695.97;;;24.31;100.00
68193;BME280;55012;47.562;18.414;2023-05-31T11:57:08;99696.78;;;24.12;100.00
68193;BME280;55012;47.562;18.414;2023-05-31T11:59:36;99701.16;;;24.29;100.00
68193;BME280;55012;47.562;18.414;2023-05-31T12:02:04;99697.72;;;24.25;100.00
68193;BME280;55012;47.562;18.414;2023-05-31T12:04:41;99702.75;;;24.10;100.00
68193;BME280;55012;47.562;18.414;2023-05-31T12:07:09;99694.78;;;24.13;100.00
68193;BME280;55012;47.562;18.414;2023-05-31T12:09:36;99686.31;;;24.43;100.00
68193;BME280;55012;47.562;18.414;2023-05-31T12:12:03;99685.06;;;24.24;100.00
68193;BME280;55012;47.562;18.414;2023-05-31T12:14:31;99684.03;;;24.18;100.00
68193;BME280;55012;47.562;18.414;2023-05-31T12:17:00;99684.47;;;24.17;100.00
68193;BME280;55012;47.562;18.414;2023-05-31T12:19:26;99689.06;;;24.43;100.00
68193;BME280;55012;47.562;18.414;2023-05-31T12:21:51;99680.25;;;24.84;100.00
68193;BME280;55012;47.562;18.414;2023-05-31T12:24:17;99677.47;;;24.84;100.00
68193;BME280;55012;47.562;18.414;2023-05-31T12:26:44;99675.78;;;24.54;100.00
68193;BME280;55012;47.562;18.414;2023-05-31T12:29:13;99674.81;;;24.45;100.00
68193;BME280;55012;47.562;18.414;2023-05-31T12:31:39;99676.31;;;24.65;100.00
68193;BME280;55012;47.562;18.414;2023-05-31T12:36:56;99666.59;;;25.26;100.00
68193;BME280;55012;47.562;18.414;2023-05-31T12:39:24;99668.31;;;25.36;100.00
68193;BME280;55012;47.562;18.414;2023-05-31T12:41:50;99664.41;;;25.50;100.00
68193;BME280;55012;47.562;18.414;2023-05-31T12:44:18;99668.41;;;25.00;100.00
68193;BME280;55012;47.562;18.414;2023-05-31T12:46:50;99671.84;;;24.88;100.00
68193;BME280;55012;47.562;18.414;2023-05-31T12:49:24;99666.22;;;24.75;100.00
68193;BME280;55012;47.562;18.414;2023-05-31T12:54:27;99659.63;;;24.69;100.00
68193;BME280;55012;47.562;18.414;2023-05-31T12:56:54;99652.63;;;24.81;100.00
68193;BME280;55012;47.562;18.414;2023-05-31T12:59:20;99659.75;;;25.14;100.00
68193;BME280;55012;47.562;18.414;2023-05-31T13:01:46;99645.25;;;25.56;100.00
68193;BME280;55012;47.562;18.414;2023-05-31T13:04:12;99646.38;;;25.58;100.00
68193;BME280;55012;47.562;18.414;2023-05-31T13:06:38;99638.00;;;26.03;100.00
68193;BME280;55012;47.562;18.414;2023-05-31T13:09:04;99634.25;;;26.65;100.00
68193;BME280;55012;47.562;18.414;2023-05-31T13:11:38;99629.66;;;27.43;100.00